Goudeau, Louisiana
Current Conditions -  °F | °C
As of 3:35 AM on Friday 28 Nov 2014 (Local Time) from KOPL Reporting Station
Clear Clear  
Wind Chill: 35°   Ceiling: Unl
Heat Index: 38°   Visibility: 10mi
Dew Point: 33°   Wind: 5mph
Humidity: 81%   Direction: 90°E
Pressure: 30.41"   Gusts: NA
Location:  30.9447°N, 92.1075°W
Report Text: KOPL 280935Z AUTO 09004KT 10SM CLR 04/01 A3041 RMK AO2 T00350005
Loading
Personal Weather Stations






























Interactive Weather Map New forecast layout! Learn more

10-Day Weather Forecast

Advertisements
Track Severe Weather on mobile